Time;durP1;ratioP1;P1;durP2;ratioP2;P2;SDS_P1;SDS_P2;PMS_P1;PMS_P2;Temp;Humidity;BMP_temperature;BMP_pressure;BME280_temperature;BME280_humidity;BME280_pressure;Samples;Min_cycle;Max_cycle;Signal;HPM_P1;HPM_P2
2021/10/28 00:14:21;;;;;;;0.40;0.40;;;;;;;5.41;88.13;99353.69;4917652;29;20056;-76
2021/10/28 00:16:49;;;;;;;0.40;0.40;;;;;;;5.38;87.82;99352.13;4901280;29;20063;-76
2021/10/28 00:19:16;;;;;;;0.40;0.40;;;;;;;5.41;87.99;99338.47;4901476;29;20060;-79
2021/10/28 00:21:43;;;;;;;0.40;0.40;;;;;;;5.39;88.22;99350.31;4887466;29;20412;-77
2021/10/28 00:24:11;;;;;;;0.40;0.40;;;;;;;5.34;88.17;99331.91;4918727;29;20071;-77
2021/10/28 00:26:40;;;;;;;0.40;0.40;;;;;;;5.34;88.47;99331.91;4933389;29;20052;-77
2021/10/28 00:29:08;;;;;;;0.40;0.40;;;;;;;5.31;88.43;99326.81;4931811;29;20051;-77
2021/10/28 00:31:36;;;;;;;0.40;0.40;;;;;;;5.29;88.58;99326.91;4915344;29;20493;-76
2021/10/28 00:34:03;;;;;;;0.40;0.40;;;;;;;5.27;88.60;99315.50;4915073;29;20084;-74
2021/10/28 00:36:29;;;;;;;0.40;0.40;;;;;;;5.26;88.67;99318.28;4933089;29;20079;-77
2021/10/28 00:38:56;;;;;;;0.40;0.40;;;;;;;5.25;88.79;99311.22;4903834;29;20493;-74
2021/10/28 00:41:23;;;;;;;0.40;0.40;;;;;;;5.23;88.82;99305.16;4917287;29;20075;-75
2021/10/28 00:43:51;;;;;;;0.40;0.40;;;;;;;5.24;89.25;99306.84;4917530;29;20073;-76
2021/10/28 00:46:18;;;;;;;0.40;0.40;;;;;;;5.21;88.93;99291.88;4918304;29;20048;-78
2021/10/28 00:48:46;;;;;;;0.40;0.40;;;;;;;5.25;88.84;99289.78;4921468;29;20162;-75
2021/10/28 00:51:13;;;;;;;0.40;0.40;;;;;;;5.24;88.77;99293.44;4902803;29;20067;-76
2021/10/28 00:53:39;;;;;;;0.40;0.40;;;;;;;5.21;88.97;99288.34;4935718;29;20278;-77
2021/10/28 00:56:06;;;;;;;0.40;0.40;;;;;;;5.14;89.36;99277.25;4886208;29;20059;-77
2021/10/28 00:58:34;;;;;;;0.40;0.40;;;;;;;5.11;89.55;99280.19;4901783;29;20485;-76
2021/10/28 01:01:04;;;;;;;0.40;0.40;;;;;;;5.11;89.40;99265.94;4917691;29;20153;-77
2021/10/28 01:03:31;;;;;;;0.40;0.40;;;;;;;5.07;89.76;99266.19;4933791;29;20060;-77
2021/10/28 01:05:57;;;;;;;0.40;0.40;;;;;;;5.07;89.63;99262.66;4934256;29;20056;-75
2021/10/28 01:08:25;;;;;;;0.40;0.40;;;;;;;5.05;89.84;99261.97;4917898;29;20087;-76
2021/10/28 01:10:51;;;;;;;0.40;0.40;;;;;;;4.99;89.95;99252.59;4899622;29;20183;-76
2021/10/28 01:13:19;;;;;;;0.40;0.40;;;;;;;5.02;90.19;99252.34;4913466;29;20149;-76
2021/10/28 01:15:45;;;;;;;0.43;0.43;;;;;;;5.04;90.15;99239.66;4915594;29;20048;-78
2021/10/28 01:18:13;;;;;;;0.40;0.40;;;;;;;5.07;90.03;99241.25;4931473;29;20124;-77
2021/10/28 01:20:44;;;;;;;0.40;0.40;;;;;;;5.08;89.67;99241.13;4914265;29;20060;-77
2021/10/28 01:23:11;;;;;;;0.40;0.40;;;;;;;5.08;90.10;99233.09;4898850;29;20113;-76
2021/10/28 01:25:41;;;;;;;0.40;0.40;;;;;;;5.08;89.60;99230.41;4917199;29;20056;-78
2021/10/28 01:28:14;;;;;;;0.40;0.40;;;;;;;5.11;89.67;99218.56;4918246;29;20066;-78
2021/10/28 01:30:40;;;;;;;0.40;0.40;;;;;;;5.14;89.60;99223.69;4916469;29;20060;-76
2021/10/28 01:33:05;;;;;;;0.40;0.40;;;;;;;5.13;89.54;99221.13;4901200;29;20327;-77
2021/10/28 01:35:31;;;;;;;0.40;0.40;;;;;;;5.14;89.81;99220.16;4935118;29;20076;-74
2021/10/28 01:37:57;;;;;;;0.40;0.40;;;;;;;5.13;89.51;99205.91;4917840;29;20060;-80
2021/10/28 01:40:23;;;;;;;0.40;0.40;;;;;;;5.14;89.56;99196.88;4901972;29;20060;-77
2021/10/28 01:42:50;;;;;;;0.40;0.40;;;;;;;5.05;89.89;99189.63;4918148;29;20055;-76
2021/10/28 01:45:20;;;;;;;0.40;0.40;;;;;;;5.10;90.16;99191.91;4903500;29;20059;-78
2021/10/28 01:47:46;;;;;;;0.40;0.40;;;;;;;5.10;89.70;99194.59;4935120;29;20062;-77
2021/10/28 01:50:12;;;;;;;0.40;0.40;;;;;;;5.03;89.89;99181.69;4902187;29;20068;-79
2021/10/28 01:52:39;;;;;;;0.40;0.40;;;;;;;5.09;90.09;99191.06;4902782;29;20193;-76
2021/10/28 01:55:10;;;;;;;0.40;0.40;;;;;;;5.05;89.94;99182.44;4918804;29;20139;-77
2021/10/28 01:57:38;;;;;;;0.40;0.40;;;;;;;5.11;90.24;99174.84;4903726;29;20069;-77
2021/10/28 02:00:16;;;;;;;0.40;0.40;;;;;;;5.03;90.15;99165.63;4902044;29;20063;-78
2021/10/28 02:02:45;;;;;;;0.40;0.40;;;;;;;5.08;90.13;99159.88;4886853;29;20187;-73
2021/10/28 02:05:15;;;;;;;0.40;0.40;;;;;;;5.02;90.53;99155.06;4917752;29;20124;-76
2021/10/28 02:07:42;;;;;;;0.40;0.40;;;;;;;5.08;90.15;99155.41;4933514;29;20071;-77
2021/10/28 02:10:09;;;;;;;0.40;0.40;;;;;;;5.10;90.30;99157.94;4933572;29;20064;-76
2021/10/28 02:12:36;;;;;;;0.40;0.40;;;;;;;5.08;90.24;99166.13;4900431;29;20048;-75
2021/10/28 02:15:03;;;;;;;0.40;0.40;;;;;;;5.12;90.18;99149.75;4902153;29;20056;-78
2021/10/28 02:17:29;;;;;;;0.40;0.40;;;;;;;5.13;90.46;99156.84;4916869;29;20075;-75
2021/10/28 02:19:55;;;;;;;0.40;0.40;;;;;;;5.11;90.39;99142.72;4901936;29;20123;-77
2021/10/28 02:22:21;;;;;;;0.40;0.40;;;;;;;5.16;90.33;99140.50;4916886;29;20104;-76
2021/10/28 02:24:47;;;;;;;0.40;0.40;;;;;;;5.12;90.31;99129.19;4902799;29;20067;-76
2021/10/28 02:27:13;;;;;;;0.40;0.40;;;;;;;5.15;90.32;99128.06;4888954;29;20048;-77
2021/10/28 02:29:39;;;;;;;0.40;0.40;;;;;;;5.14;90.61;99127.22;4918262;29;20040;-76
2021/10/28 02:32:05;;;;;;;0.40;0.40;;;;;;;5.12;90.55;99122.97;4935530;29;20040;-74
2021/10/28 02:34:31;;;;;;;0.40;0.40;;;;;;;5.14;90.61;99121.03;4918845;29;20107;-74
2021/10/28 02:36:57;;;;;;;0.40;0.40;;;;;;;5.10;90.28;99124.94;4918899;29;20111;-75
2021/10/28 02:39:23;;;;;;;0.40;0.40;;;;;;;5.13;90.63;99108.63;4902016;29;20079;-76
2021/10/28 02:41:49;;;;;;;0.40;0.40;;;;;;;5.09;90.36;99099.97;4917659;29;20046;-78
2021/10/28 02:44:14;;;;;;;0.40;0.40;;;;;;;5.14;90.30;99104.94;4917639;29;20060;-75
2021/10/28 02:46:41;;;;;;;0.40;0.40;;;;;;;5.14;90.46;99094.22;4917641;29;20100;-73
2021/10/28 02:49:11;;;;;;;0.40;0.40;;;;;;;5.08;90.77;99096.47;4902032;29;20052;-75
2021/10/28 02:51:38;;;;;;;0.40;0.40;;;;;;;5.06;91.16;99093.06;4917794;29;20070;-77
2021/10/28 02:54:07;;;;;;;0.40;0.40;;;;;;;5.03;91.06;99079.91;4913905;29;20115;-78
2021/10/28 02:56:33;;;;;;;0.40;0.40;;;;;;;5.02;91.34;99075.53;4901153;29;20056;-77
2021/10/28 02:58:59;;;;;;;0.40;0.40;;;;;;;5.04;91.70;99078.91;4918131;29;20084;-78
2021/10/28 03:01:25;;;;;;;0.40;0.40;;;;;;;5.04;91.71;99060.16;4935510;29;20119;-77
2021/10/28 03:03:51;;;;;;;0.40;0.40;;;;;;;5.01;91.51;99056.91;4917856;29;20068;-76
2021/10/28 03:06:17;;;;;;;0.40;0.40;;;;;;;5.02;91.79;99053.25;4933634;29;20060;-79
2021/10/28 03:08:43;;;;;;;0.40;0.40;;;;;;;5.00;92.07;99039.97;4886545;29;20048;-76
2021/10/28 03:11:09;;;;;;;0.40;0.40;;;;;;;4.96;92.03;99043.06;4917169;29;20681;-76
2021/10/28 03:13:37;;;;;;;0.40;0.40;;;;;;;4.96;92.26;99037.72;4865099;29;20048;-75
2021/10/28 03:16:18;;;;;;;0.40;0.40;;;;;;;4.90;92.76;99039.09;4856858;29;20088;-74
2021/10/28 03:26:59;;;;;;;0.50;0.50;;;;;;;4.89;92.66;99040.06;4914587;29;20060;-75
2021/10/28 03:29:25;;;;;;;0.40;0.40;;;;;;;4.89;92.74;99041.88;4897605;29;20052;-74
2021/10/28 03:31:51;;;;;;;0.50;0.50;;;;;;;4.87;92.84;99034.00;4897765;29;20078;-76
2021/10/28 03:34:17;;;;;;;0.50;0.50;;;;;;;4.90;92.96;99032.88;4915573;29;20060;-74
2021/10/28 03:36:54;;;;;;;0.40;0.40;;;;;;;4.88;94.05;99032.16;4915843;29;20079;-74
2021/10/28 04:05:34;;;;;;;0.40;0.40;;;;;;;4.79;97.62;99007.88;4900720;29;20055;-74
2021/10/28 04:16:38;;;;;;;0.40;0.40;;;;;;;4.94;97.68;99013.75;4890420;29;20068;-68
2021/10/28 04:19:31;;;;;;;0.40;0.40;;;;;;;4.91;97.71;99003.28;4886155;29;20048;-70
2021/10/28 04:29:55;;;;;;;0.40;0.40;;;;;;;5.02;97.44;98991.66;4901030;29;20103;-73
2021/10/28 04:32:21;;;;;;;0.40;0.40;;;;;;;5.05;97.54;99000.28;4894610;29;20060;-72
2021/10/28 04:34:47;;;;;;;0.40;0.40;;;;;;;5.10;97.82;99007.06;4877070;29;20386;-71
2021/10/28 04:37:13;;;;;;;0.40;0.40;;;;;;;5.08;97.78;99000.00;4885233;29;20433;-69
2021/10/28 04:39:39;;;;;;;0.40;0.40;;;;;;;5.11;97.93;98998.03;4886581;29;20049;-68
2021/10/28 04:42:05;;;;;;;0.40;0.40;;;;;;;5.13;98.24;98996.94;4899933;29;20083;-67
2021/10/28 04:44:31;;;;;;;0.40;0.40;;;;;;;5.12;99.01;98994.38;4883831;29;20049;-72
2021/10/28 04:46:56;;;;;;;0.40;0.40;;;;;;;5.11;99.19;98992.69;4862578;29;20048;-68
2021/10/28 04:49:22;;;;;;;0.40;0.40;;;;;;;5.10;99.38;98986.47;4909119;29;20473;-73
2021/10/28 04:51:50;;;;;;;0.40;0.40;;;;;;;5.11;99.58;98981.97;4909245;29;20137;-75
2021/10/28 04:54:16;;;;;;;0.40;0.40;;;;;;;5.18;100.00;98996.53;4885713;29;20131;-72
2021/10/28 04:56:42;;;;;;;0.40;0.40;;;;;;;5.16;99.59;98977.06;4852398;29;20049;-69
2021/10/28 04:59:09;;;;;;;0.40;0.40;;;;;;;5.18;99.62;98988.50;4883224;29;20068;-78
2021/10/28 05:01:35;;;;;;;0.40;0.40;;;;;;;5.26;99.96;98983.31;4862874;29;20059;-71
2021/10/28 05:04:01;;;;;;;0.40;0.40;;;;;;;5.27;100.00;98985.03;4878369;29;20048;-73
2021/10/28 05:06:27;;;;;;;0.40;0.40;;;;;;;5.28;99.86;98984.88;4896880;29;20441;-73
2021/10/28 05:08:53;;;;;;;0.50;0.50;;;;;;;5.27;99.54;98983.19;4877433;29;20064;-71
2021/10/28 05:11:20;;;;;;;0.40;0.40;;;;;;;5.33;99.38;98979.09;4878767;29;20060;-70
2021/10/28 05:13:46;;;;;;;0.40;0.40;;;;;;;5.28;99.72;98973.31;4864409;29;20557;-74
2021/10/28 05:16:12;;;;;;;0.40;0.40;;;;;;;5.37;99.42;98982.38;4879671;29;20513;-72
2021/10/28 05:18:41;;;;;;;0.40;0.40;;;;;;;5.40;99.16;99001.72;4864332;29;20052;-71
2021/10/28 05:21:08;;;;;;;0.40;0.40;;;;;;;5.38;99.03;98989.44;4881896;29;20274;-73
2021/10/28 05:23:35;;;;;;;0.40;0.40;;;;;;;5.38;99.19;98989.44;4915118;29;20094;-72
2021/10/28 05:26:01;;;;;;;0.40;0.40;;;;;;;5.39;99.31;98991.13;4915812;29;20155;-73
2021/10/28 05:28:27;;;;;;;0.40;0.40;;;;;;;5.41;99.54;98999.88;4867946;29;20235;-74
2021/10/28 05:30:53;;;;;;;0.40;0.40;;;;;;;5.43;99.43;99001.44;4883072;29;20090;-74
2021/10/28 05:33:19;;;;;;;0.40;0.40;;;;;;;5.41;99.72;98990.03;4899804;29;20087;-73
2021/10/28 05:35:45;;;;;;;0.40;0.40;;;;;;;5.39;99.82;98991.13;4916927;29;20477;-74
2021/10/28 05:38:11;;;;;;;0.40;0.40;;;;;;;5.43;100.00;99004.13;4883847;29;20056;-71
2021/10/28 05:40:37;;;;;;;0.40;0.40;;;;;;;5.41;100.00;98990.03;4899541;29;20477;-75
2021/10/28 05:43:03;;;;;;;0.40;0.40;;;;;;;5.47;100.00;98994.81;4883675;29;20497;-72
2021/10/28 05:45:31;;;;;;;0.40;0.40;;;;;;;5.48;100.00;98995.66;4883623;29;20052;-71
2021/10/28 05:47:56;;;;;;;0.40;0.40;;;;;;;5.48;100.00;98996.50;4898924;29;20505;-73
2021/10/28 05:50:24;;;;;;;0.40;0.40;;;;;;;5.53;100.00;98988.94;4915704;29;20052;-74
2021/10/28 05:52:52;;;;;;;0.40;0.40;;;;;;;5.59;100.00;98992.88;4883157;29;20115;-73
2021/10/28 05:55:31;;;;;;;0.40;0.40;;;;;;;5.60;100.00;98983.03;4883652;29;20096;-71
2021/10/28 05:58:12;;;;;;;0.40;0.40;;;;;;;5.60;100.00;98977.69;4861946;29;20065;-73
2021/10/28 06:00:41;;;;;;;0.40;0.40;;;;;;;5.62;100.00;98981.03;4862905;29;20139;-75
2021/10/28 06:03:07;;;;;;;0.40;0.40;;;;;;;5.67;100.00;98984.19;4888310;29;20135;-74
2021/10/28 06:05:32;;;;;;;0.40;0.40;;;;;;;5.70;100.00;98983.88;4845479;29;20143;-75
2021/10/28 06:07:58;;;;;;;0.40;0.40;;;;;;;5.69;100.00;98983.03;4867757;29;20064;-73
2021/10/28 06:10:24;;;;;;;0.40;0.40;;;;;;;5.66;100.00;98964.53;4884762;29;20471;-74
2021/10/28 06:12:55;;;;;;;0.40;0.40;;;;;;;5.73;100.00;98972.91;4867309;29;20053;-74
2021/10/28 06:15:21;;;;;;;0.40;0.40;;;;;;;5.78;100.00;98979.56;4859186;29;20061;-73
2021/10/28 06:20:17;;;;;;;0.40;0.40;;;;;;;5.85;100.00;98974.50;4879982;29;20056;-75
2021/10/28 06:22:49;;;;;;;0.40;0.40;;;;;;;5.83;100.00;98963.03;4884568;29;20400;-74
2021/10/28 06:25:17;;;;;;;0.43;0.43;;;;;;;5.81;100.00;98970.38;4865110;29;20049;-77
2021/10/28 06:27:44;;;;;;;0.40;0.40;;;;;;;5.88;100.00;98976.88;4863610;29;20070;-72
2021/10/28 06:30:10;;;;;;;0.50;0.50;;;;;;;5.85;100.00;98979.84;4881993;29;20060;-72
2021/10/28 06:32:44;;;;;;;0.43;0.43;;;;;;;5.87;100.00;98977.88;4898092;29;20048;-74
2021/10/28 06:35:10;;;;;;;0.40;0.40;;;;;;;5.86;100.00;98978.03;4865169;29;20056;-76
2021/10/28 06:37:36;;;;;;;0.40;0.40;;;;;;;5.87;100.00;98972.50;4840921;29;20104;-75
2021/10/28 06:40:03;;;;;;;0.40;0.40;;;;;;;5.90;100.00;98976.75;4855702;29;20477;-79
2021/10/28 06:42:29;;;;;;;0.40;0.40;;;;;;;5.91;100.00;98971.25;4882393;29;20138;-73
2021/10/28 06:44:55;;;;;;;0.40;0.40;;;;;;;5.98;100.00;98972.41;4879690;29;20143;-74
2021/10/28 06:47:20;;;;;;;0.40;0.40;;;;;;;5.99;100.00;98981.31;4866578;29;20057;-74
2021/10/28 06:49:46;;;;;;;0.40;0.40;;;;;;;6.09;100.00;98984.84;4881237;29;20140;-74
2021/10/28 06:52:13;;;;;;;0.40;0.40;;;;;;;6.11;100.00;98982.06;4874826;29;20060;-75
2021/10/28 06:54:43;;;;;;;0.50;0.50;;;;;;;6.15;100.00;98988.84;4888008;29;20048;-72
2021/10/28 07:02:41;;;;;;;0.40;0.40;;;;;;;6.29;100.00;98991.13;4869953;29;20048;-74
2021/10/28 07:05:07;;;;;;;0.40;0.40;;;;;;;6.28;100.00;98986.72;4885016;29;20180;-78
2021/10/28 07:07:34;;;;;;;0.40;0.40;;;;;;;6.37;100.00;98977.81;4884198;29;20052;-73
2021/10/28 07:10:13;;;;;;;0.50;0.50;;;;;;;6.39;100.00;98989.25;4882291;29;20455;-74
2021/10/28 07:12:53;;;;;;;0.40;0.40;;;;;;;6.39;100.00;98986.56;4854347;29;20122;-72
2021/10/28 07:15:38;;;;;;;0.40;0.40;;;;;;;6.47;100.00;98984.06;4835305;29;20633;-76
2021/10/28 07:33:51;;;;;;;0.40;0.40;;;;;;;6.85;100.00;98976.09;4890578;29;20504;-78
2021/10/28 07:58:33;;;;;;;0.40;0.40;;;;;;;7.16;99.73;98990.16;4886731;29;20060;-76
2021/10/28 08:20:16;;;;;;;0.40;0.40;;;;;;;7.56;98.59;99007.84;4878107;29;20095;-76
2021/10/28 08:23:02;;;;;;;0.40;0.40;;;;;;;7.65;98.68;99004.28;4878116;29;20073;-76
2021/10/28 08:30:58;;;;;;;0.38;0.38;;;;;;;7.88;97.82;99019.03;4880686;29;20076;-79
2021/10/28 08:33:24;;;;;;;0.30;0.30;;;;;;;7.87;97.61;99017.34;4846861;29;20116;-74
2021/10/28 08:35:56;;;;;;;0.35;0.35;;;;;;;7.84;97.48;99012.25;4881260;29;20145;-75
2021/10/28 08:38:22;;;;;;;0.30;0.30;;;;;;;7.85;97.51;99019.31;4877276;29;20067;-74
2021/10/28 08:40:55;;;;;;;0.40;0.40;;;;;;;7.84;97.69;99020.31;4895288;29;20044;-79
2021/10/28 08:43:22;;;;;;;0.30;0.30;;;;;;;7.82;97.89;99025.00;4853467;29;20053;-75
2021/10/28 08:45:50;;;;;;;0.40;0.40;;;;;;;7.88;97.88;99032.47;4887733;29;20440;-76
2021/10/28 08:48:26;;;;;;;0.40;0.40;;;;;;;8.00;97.71;99030.41;4858877;29;20151;-75
2021/10/28 08:51:56;;;;;;;0.30;0.30;;;;;;;8.06;97.19;99037.06;4859450;29;20067;-75
2021/10/28 08:53:57;;;;;;;0.40;0.40;;;;;;;8.10;97.32;99038.47;4869287;29;20057;-77
2021/10/28 08:59:29;;;;;;;0.40;0.40;;;;;;;8.24;96.70;99029.88;4884473;29;20109;-74
2021/10/28 09:23:54;;;;;;;0.30;0.30;;;;;;;9.12;92.34;99040.81;4870405;29;20084;-73
2021/10/28 09:25:11;;;;;;;0.40;0.40;;;;;;;9.41;91.02;99038.66;4870320;29;20739;-78
2021/10/28 09:27:58;;;;;;;0.30;0.30;;;;;;;9.42;90.72;99051.13;4885346;29;20052;-79
2021/10/28 09:30:56;;;;;;;0.30;0.30;;;;;;;9.38;90.75;99057.00;4867907;29;20052;-77
2021/10/28 09:44:42;;;;;;;0.30;0.30;;;;;;;10.40;85.63;99058.03;4866326;29;20053;-77
2021/10/28 09:47:32;;;;;;;0.40;0.40;;;;;;;10.34;85.97;99054.97;4862193;29;20420;-75
2021/10/28 09:50:09;;;;;;;0.30;0.30;;;;;;;10.28;86.07;99061.03;4889392;29;20564;-73
2021/10/28 09:52:46;;;;;;;0.30;0.30;;;;;;;10.29;86.03;99068.13;4863377;29;20048;-75
2021/10/28 09:58:02;;;;;;;0.30;0.30;;;;;;;10.30;86.05;99059.00;4885410;29;20108;-74
2021/10/28 10:00:38;;;;;;;0.30;0.30;;;;;;;10.14;86.83;99069.75;4866757;29;20123;-75
2021/10/28 10:03:14;;;;;;;0.30;0.30;;;;;;;10.14;87.07;99075.97;4867586;29;20063;-75
2021/10/28 10:05:40;;;;;;;0.30;0.30;;;;;;;9.95;87.65;99076.25;4886004;29;20421;-75
2021/10/28 10:08:07;;;;;;;0.30;0.30;;;;;;;10.01;88.46;99080.13;4877761;29;20502;-75
2021/10/28 10:10:34;;;;;;;0.30;0.30;;;;;;;9.87;88.53;99074.34;4880729;29;20528;-74
2021/10/28 10:13:02;;;;;;;0.30;0.30;;;;;;;9.80;88.97;99083.22;4870898;29;20529;-75
2021/10/28 10:15:28;;;;;;;0.30;0.30;;;;;;;9.83;89.30;99075.66;4876271;29;20056;-76
2021/10/28 10:17:57;;;;;;;0.30;0.30;;;;;;;9.89;90.09;99082.28;4883675;29;20119;-75
2021/10/28 10:26:04;;;;;;;0.30;0.30;;;;;;;9.84;90.15;99087.31;4861521;29;20505;-75
2021/10/28 11:25:37;;;;;;;0.40;0.40;;;;;;;13.05;70.93;99156.41;4865271;29;20055;-73
2021/10/28 12:45:18;;;;;;;0.30;0.30;;;;;;;10.47;76.55;99313.09;4866668;29;20059;-75
2021/10/28 13:02:45;;;;;;;0.30;0.30;;;;;;;10.12;78.94;99352.63;4884916;29;20213;-77
2021/10/28 13:05:18;;;;;;;0.20;0.20;;;;;;;10.13;78.84;99367.88;4867371;29;20048;-75
2021/10/28 13:49:08;;;;;;;0.30;0.30;;;;;;;9.62;80.22;99462.00;4818853;29;20078;-79
2021/10/28 13:52:05;;;;;;;0.30;0.30;;;;;;;9.58;80.28;99457.03;4841928;29;20077;-76
2021/10/28 14:30:18;;;;;;;0.30;0.30;;;;;;;9.08;87.76;99576.03;4829690;29;20053;-74
2021/10/28 15:03:06;;;;;;;0.30;0.30;;;;;;;8.79;86.57;99660.44;4812035;29;20142;-82
2021/10/28 15:33:48;;;;;;;0.30;0.30;;;;;;;8.54;83.59;99725.63;4779190;30;20677;-74
2021/10/28 15:38:47;;;;;;;0.30;0.30;;;;;;;8.38;84.02;99727.00;4788955;29;20582;-72
2021/10/28 15:47:18;;;;;;;0.30;0.30;;;;;;;8.29;84.14;99733.16;4796907;29;20431;-74
2021/10/28 16:00:20;;;;;;;0.30;0.30;;;;;;;8.09;82.20;99785.22;4795901;29;20051;-70
2021/10/28 16:21:59;;;;;;;0.30;0.30;;;;;;;8.18;82.22;99832.88;4785252;29;20066;-74
2021/10/28 16:24:31;;;;;;;0.30;0.30;;;;;;;8.15;82.05;99844.78;4784057;29;20054;-73
2021/10/28 16:26:57;;;;;;;0.32;0.32;;;;;;;8.14;82.16;99842.19;4786964;29;20058;-74
2021/10/28 16:29:24;;;;;;;0.30;0.30;;;;;;;8.18;82.13;99865.19;4784824;29;20059;-74
2021/10/28 16:31:51;;;;;;;0.30;0.30;;;;;;;8.15;81.98;99866.31;4770123;29;21188;-75
2021/10/28 16:34:18;;;;;;;0.30;0.30;;;;;;;8.08;82.63;99872.34;4755908;29;20066;-75
2021/10/28 16:36:46;;;;;;;0.30;0.30;;;;;;;8.06;81.75;99877.84;4785832;29;20141;-74
2021/10/28 16:39:13;;;;;;;0.30;0.30;;;;;;;8.07;81.45;99882.25;4800786;29;20095;-74
2021/10/28 16:41:43;;;;;;;0.30;0.30;;;;;;;8.09;81.01;99887.53;4803664;29;20055;-75
2021/10/28 16:44:11;;;;;;;0.30;0.30;;;;;;;8.00;81.30;99909.81;4811431;29;20058;-73
2021/10/28 16:46:38;;;;;;;0.30;0.30;;;;;;;8.05;81.06;99913.00;4798665;29;20055;-71
2021/10/28 16:49:08;;;;;;;0.30;0.30;;;;;;;8.03;81.22;99912.25;4784037;29;20516;-72
2021/10/28 16:51:34;;;;;;;0.40;0.40;;;;;;;8.00;80.92;99923.28;4784825;29;20051;-72
2021/10/28 16:54:00;;;;;;;0.30;0.30;;;;;;;8.03;80.98;99940.03;4756323;29;20103;-72
2021/10/28 16:56:26;;;;;;;0.30;0.30;;;;;;;7.98;80.75;99940.44;4757305;29;20062;-72
2021/10/28 16:58:52;;;;;;;0.30;0.30;;;;;;;8.00;81.11;99944.81;4789021;29;20491;-75
2021/10/28 17:01:18;;;;;;;0.30;0.30;;;;;;;7.84;79.63;99954.16;4772992;29;20378;-77
2021/10/28 17:03:44;;;;;;;0.30;0.30;;;;;;;7.77;78.63;99963.72;4787908;29;20055;-77
2021/10/28 17:06:13;;;;;;;0.30;0.30;;;;;;;7.71;76.95;99962.41;4770855;29;20059;-76
2021/10/28 17:08:40;;;;;;;0.30;0.30;;;;;;;7.65;75.81;99976.34;4787092;29;20561;-77
2021/10/28 17:11:06;;;;;;;0.30;0.30;;;;;;;7.52;75.78;99982.84;4789051;29;20058;-76
2021/10/28 17:13:33;;;;;;;0.30;0.30;;;;;;;7.52;75.37;99981.00;4772709;29;20058;-76
2021/10/28 17:15:59;;;;;;;0.30;0.30;;;;;;;7.49;75.54;99982.13;4784392;29;20051;-76
2021/10/28 17:18:25;;;;;;;0.30;0.30;;;;;;;7.52;75.85;99985.53;4787658;29;20165;-76
2021/10/28 17:20:51;;;;;;;0.30;0.30;;;;;;;7.51;75.92;99992.75;4771338;29;20545;-75
2021/10/28 17:23:19;;;;;;;0.30;0.30;;;;;;;7.51;75.80;99997.28;4786877;29;20065;-76
2021/10/28 17:25:56;;;;;;;0.32;0.32;;;;;;;7.53;75.54;100014.13;4786369;29;20173;-74
2021/10/28 17:28:23;;;;;;;0.40;0.40;;;;;;;7.41;75.95;99999.84;4778376;29;20413;-74
2021/10/28 17:30:50;;;;;;;0.40;0.40;;;;;;;7.33;76.15;100007.69;4799186;29;20429;-79
2021/10/28 17:33:19;;;;;;;0.40;0.40;;;;;;;7.34;75.99;100012.91;4768411;29;20051;-80
2021/10/28 17:35:44;;;;;;;0.40;0.40;;;;;;;7.38;76.12;100010.84;4849307;24;20215;-71
2021/10/28 17:38:10;;;;;;;0.30;0.30;;;;;;;7.34;76.27;100006.69;4795181;29;20492;-77
2021/10/28 17:40:37;;;;;;;0.40;0.40;;;;;;;7.33;76.62;100007.69;4780139;29;20086;-75
2021/10/28 17:43:09;;;;;;;0.40;0.40;;;;;;;7.34;76.58;100004.84;4766903;29;20084;-75
2021/10/28 17:45:37;;;;;;;0.32;0.32;;;;;;;7.40;76.60;99999.00;4781021;29;20157;-75
2021/10/28 17:48:03;;;;;;;0.30;0.30;;;;;;;7.33;76.46;100008.53;4787673;29;20461;-76
2021/10/28 17:50:29;;;;;;;0.30;0.30;;;;;;;7.37;76.49;100015.38;4777971;29;20059;-75
2021/10/28 17:52:55;;;;;;;0.40;0.40;;;;;;;7.27;76.85;99998.25;4754632;29;20066;-76
2021/10/28 17:55:21;;;;;;;0.30;0.30;;;;;;;7.36;76.20;100008.28;4790977;29;20058;-74
2021/10/28 17:57:50;;;;;;;0.30;0.30;;;;;;;7.36;76.42;100013.66;4816792;29;20483;-74
2021/10/28 18:00:18;;;;;;;0.30;0.30;;;;;;;7.34;76.40;100017.44;4796377;29;20150;-74
2021/10/28 18:02:44;;;;;;;0.40;0.40;;;;;;;7.36;76.67;100028.94;4777070;29;20059;-76
2021/10/28 18:05:11;;;;;;;0.30;0.30;;;;;;;7.30;77.06;100026.75;4779026;29;20112;-75
2021/10/28 18:07:38;;;;;;;0.40;0.40;;;;;;;7.35;77.08;100032.59;4788071;29;20057;-74
2021/10/28 18:10:05;;;;;;;0.40;0.40;;;;;;;7.38;76.61;100038.59;4787788;29;20069;-74
2021/10/28 18:12:32;;;;;;;0.40;0.40;;;;;;;7.37;76.70;100047.66;4802928;29;20281;-74
2021/10/28 18:14:58;;;;;;;0.40;0.40;;;;;;;7.35;76.87;100049.63;4792011;29;20069;-74
2021/10/28 18:17:24;;;;;;;0.40;0.40;;;;;;;7.41;77.10;100054.50;4774434;29;20061;-74
2021/10/28 18:19:50;;;;;;;0.40;0.40;;;;;;;7.43;77.24;100057.94;4774912;29;20120;-74
2021/10/28 18:22:17;;;;;;;0.38;0.38;;;;;;;7.37;77.42;100071.84;4784251;29;20090;-74
2021/10/28 18:24:44;;;;;;;0.40;0.40;;;;;;;7.37;77.25;100074.53;4777107;29;20158;-74
2021/10/28 18:27:10;;;;;;;0.40;0.40;;;;;;;7.35;77.58;100095.34;4773933;29;20070;-76
2021/10/28 18:29:37;;;;;;;0.40;0.40;;;;;;;7.32;77.85;100103.63;4801838;29;20054;-76
2021/10/28 18:32:04;;;;;;;0.30;0.30;;;;;;;7.27;77.37;100100.44;4801839;29;20063;-74
2021/10/28 18:34:29;;;;;;;0.30;0.30;;;;;;;7.23;77.99;100120.47;4804602;29;20081;-76
2021/10/28 18:36:56;;;;;;;0.40;0.40;;;;;;;7.23;77.56;100112.41;4775262;29;20452;-75
2021/10/28 18:39:22;;;;;;;0.40;0.40;;;;;;;7.24;77.30;100120.38;4768231;29;20506;-75
2021/10/28 18:41:50;;;;;;;0.40;0.40;;;;;;;7.19;77.11;100119.00;4798241;29;20058;-76
2021/10/28 18:44:16;;;;;;;0.35;0.35;;;;;;;7.10;76.18;100131.34;4800817;29;20058;-73
2021/10/28 18:46:42;;;;;;;0.30;0.30;;;;;;;7.10;76.07;100136.72;4766897;29;20066;-72
2021/10/28 18:49:08;;;;;;;0.32;0.32;;;;;;;7.06;76.52;100139.72;4755468;29;20054;-74
2021/10/28 18:51:36;;;;;;;0.30;0.30;;;;;;;7.17;76.17;100153.22;4785663;29;20075;-74
2021/10/28 18:54:11;;;;;;;0.40;0.40;;;;;;;7.17;76.27;100151.41;4787319;29;20611;-75
2021/10/28 18:56:37;;;;;;;0.40;0.40;;;;;;;7.08;76.18;100168.22;4761581;29;20138;-72
2021/10/28 18:59:04;;;;;;;0.40;0.40;;;;;;;7.10;75.85;100170.81;4788489;29;20181;-74
2021/10/28 19:01:31;;;;;;;0.40;0.40;;;;;;;7.09;75.32;100182.50;4754568;29;20573;-74
2021/10/28 19:03:57;;;;;;;0.40;0.40;;;;;;;7.11;75.25;100191.31;4784569;29;20062;-74
2021/10/28 19:06:23;;;;;;;0.40;0.40;;;;;;;7.11;75.17;100192.19;4786577;29;20468;-74
2021/10/28 19:08:50;;;;;;;0.40;0.40;;;;;;;7.07;75.04;100184.47;4786069;29;20511;-75
2021/10/28 19:11:16;;;;;;;0.30;0.30;;;;;;;7.10;74.63;100185.09;4788533;29;20063;-74
2021/10/28 19:13:44;;;;;;;0.40;0.40;;;;;;;7.10;74.91;100184.25;4787950;29;20103;-74
2021/10/28 19:16:12;;;;;;;0.40;0.40;;;;;;;7.09;73.91;100193.25;4790877;29;20516;-75
2021/10/28 19:18:42;;;;;;;0.40;0.40;;;;;;;7.19;74.32;100199.66;4787678;29;20150;-74
2021/10/28 19:21:08;;;;;;;0.40;0.40;;;;;;;7.07;74.62;100200.59;4793281;29;20640;-74
2021/10/28 19:23:35;;;;;;;0.40;0.40;;;;;;;7.12;74.82;100201.09;4772002;29;20507;-74
2021/10/28 19:26:01;;;;;;;0.30;0.30;;;;;;;7.19;74.66;100210.41;4794376;29;20143;-74
2021/10/28 19:28:27;;;;;;;0.40;0.40;;;;;;;7.09;75.54;100193.25;4772908;29;20538;-74
2021/10/28 19:31:06;;;;;;;0.40;0.40;;;;;;;6.99;75.36;100199.34;4772238;29;20051;-74
2021/10/28 19:33:43;;;;;;;0.40;0.40;;;;;;;6.96;74.15;100199.56;4769499;29;20059;-73
2021/10/28 19:36:18;;;;;;;0.30;0.30;;;;;;;6.94;72.60;100201.50;4770182;29;20058;-73
2021/10/28 19:38:58;;;;;;;0.40;0.40;;;;;;;6.97;72.42;100203.97;4775117;29;20058;-73
2021/10/28 19:46:46;;;;;;;0.40;0.40;;;;;;;6.90;72.03;100216.16;4774287;29;20062;-74
2021/10/28 19:49:14;;;;;;;0.40;0.40;;;;;;;6.98;71.95;100218.25;4768977;29;20051;-73
2021/10/28 19:51:41;;;;;;;0.40;0.40;;;;;;;6.94;72.58;100223.00;4782889;29;20442;-73
2021/10/28 19:54:11;;;;;;;0.40;0.40;;;;;;;6.96;72.24;100229.13;4767098;29;20058;-74
2021/10/28 19:56:37;;;;;;;0.40;0.40;;;;;;;6.93;73.04;100229.34;4784050;29;20392;-74
2021/10/28 19:59:05;;;;;;;0.40;0.40;;;;;;;6.96;73.16;100234.50;4786700;29;20085;-73
2021/10/28 20:01:38;;;;;;;0.40;0.40;;;;;;;6.94;72.06;100241.81;4753705;29;20143;-74
2021/10/28 20:06:47;;;;;;;0.50;0.50;;;;;;;7.03;72.61;100242.13;4787855;29;20073;-73
2021/10/28 20:20:08;;;;;;;0.40;0.40;;;;;;;7.06;73.03;100236.50;4771909;29;20136;-74
2021/10/28 20:22:36;;;;;;;0.40;0.40;;;;;;;7.05;72.97;100234.78;4788211;29;20142;-73
2021/10/28 20:25:04;;;;;;;0.30;0.30;;;;;;;6.99;72.70;100241.50;4774035;29;20161;-74